createdAt,value
2022-09-25T00:01:48.899Z,97963.44
2022-09-25T00:04:15.329Z,97962.50
2022-09-25T00:06:42.195Z,97958.91
2022-09-25T00:09:10.208Z,97965.34
2022-09-25T00:11:38.570Z,97957.00
2022-09-25T00:14:04.934Z,97958.63
2022-09-25T00:16:31.496Z,97956.56
2022-09-25T00:19:17.132Z,97961.19
2022-09-25T00:21:43.479Z,97959.16
2022-09-25T00:24:10.209Z,97956.75
2022-09-25T00:26:40.415Z,97954.44
2022-09-25T00:29:06.993Z,97956.25
2022-09-25T00:31:33.387Z,97959.09
2022-09-25T00:34:00.479Z,97956.13
2022-09-25T00:36:26.858Z,97956.31
2022-09-25T00:38:54.264Z,97950.75
2022-09-25T00:41:21.519Z,97947.53
2022-09-25T00:43:50.573Z,97945.19
2022-09-25T00:46:23.063Z,97951.03
2022-09-25T00:48:49.477Z,97947.53
2022-09-25T00:51:16.738Z,97938.75
2022-09-25T00:53:43.072Z,97941.03
2022-09-25T00:56:09.720Z,97948.78
2022-09-25T00:58:36.053Z,97952.81
2022-09-25T01:01:02.473Z,97949.81
2022-09-25T01:03:28.918Z,97946.53
2022-09-25T01:05:56.127Z,97950.59
2022-09-25T01:08:23.366Z,97952.81
2022-09-25T01:10:50.159Z,97943.16
2022-09-25T01:13:16.563Z,97944.75
2022-09-25T01:15:42.960Z,97953.47
2022-09-25T01:18:15.187Z,97954.91
2022-09-25T01:20:50.742Z,97953.31
2022-09-25T01:23:23.002Z,97941.38
2022-09-25T01:26:11.438Z,97952.38
2022-09-25T01:28:52.104Z,97949.31
2022-09-25T01:31:22.067Z,97950.78
2022-09-25T01:33:49.393Z,97954.28
2022-09-25T01:36:26.142Z,97955.00
2022-09-25T01:39:11.127Z,97954.66
2022-09-25T01:41:45.052Z,97954.66
2022-09-25T01:44:13.532Z,97960.19
2022-09-25T01:46:44.648Z,97962.97
2022-09-25T01:49:19.256Z,97970.94
2022-09-25T01:51:46.975Z,97960.66
2022-09-25T01:54:17.921Z,97968.91
2022-09-25T01:56:47.194Z,97960.19
2022-09-25T01:59:17.319Z,97968.78
2022-09-25T02:01:43.971Z,97965.09
2022-09-25T02:04:12.459Z,97960.56
2022-09-25T02:06:38.919Z,97954.50
2022-09-25T02:09:07.371Z,97950.84
2022-09-25T02:11:35.078Z,97950.19
2022-09-25T02:14:06.534Z,97947.72
2022-09-25T02:16:37.540Z,97944.19
2022-09-25T02:19:22.813Z,97951.50
2022-09-25T02:21:58.866Z,97950.94
2022-09-25T02:24:27.118Z,97947.84
2022-09-25T02:26:53.491Z,97949.75
2022-09-25T02:29:19.870Z,97949.44
2022-09-25T02:31:54.713Z,97952.03
2022-09-25T02:34:21.563Z,97958.16
2022-09-25T02:36:48.677Z,97959.75
2022-09-25T02:39:15.723Z,97960.84
2022-09-25T02:41:52.108Z,97958.06
2022-09-25T02:44:36.986Z,97961.25
2022-09-25T02:47:07.663Z,97957.72
2022-09-25T02:49:44.402Z,97965.47
2022-09-25T02:52:11.534Z,97957.50
2022-09-25T02:54:56.656Z,97953.91
2022-09-25T02:57:43.365Z,97960.84
2022-09-25T03:00:10.096Z,97957.06
2022-09-25T03:02:36.707Z,97958.22
2022-09-25T03:05:03.544Z,97950.53
2022-09-25T03:07:49.866Z,97950.19
2022-09-25T03:10:16.591Z,97953.47
2022-09-25T03:12:42.924Z,97952.16
2022-09-25T03:15:09.491Z,97954.88
2022-09-25T03:17:37.357Z,97945.44
2022-09-25T03:20:03.877Z,97950.06
2022-09-25T03:22:30.221Z,97957.94
2022-09-25T03:24:58.925Z,97956.50
2022-09-25T03:27:28.087Z,97952.38
2022-09-25T03:29:55.345Z,97948.81
2022-09-25T03:32:22.143Z,97954.72
2022-09-25T03:34:48.531Z,97954.78
2022-09-25T03:37:14.860Z,97958.75
2022-09-25T03:39:41.385Z,97956.31
2022-09-25T03:42:07.866Z,97956.31
2022-09-25T03:44:34.262Z,97951.94
2022-09-25T03:47:00.602Z,97948.44
2022-09-25T03:49:27.035Z,97943.25
2022-09-25T03:51:53.374Z,97932.41
2022-09-25T03:54:19.735Z,97950.16
2022-09-25T03:56:46.092Z,97936.28
2022-09-25T03:59:12.423Z,97930.59
2022-09-25T04:01:38.899Z,97941.25
2022-09-25T04:04:05.329Z,97943.16
2022-09-25T04:06:31.701Z,97945.91
2022-09-25T04:08:58.097Z,97942.78
2022-09-25T04:11:24.483Z,97941.09
2022-09-25T04:13:50.916Z,97944.56
2022-09-25T04:16:17.446Z,97948.34
2022-09-25T04:18:43.881Z,97947.25
2022-09-25T04:21:11.028Z,97934.47
2022-09-25T04:23:37.480Z,97935.72
2022-09-25T04:26:03.825Z,97944.31
2022-09-25T04:28:32.197Z,97932.13
2022-09-25T04:30:58.681Z,97931.03
2022-09-25T04:33:43.775Z,97932.06
2022-09-25T04:36:10.158Z,97931.03
2022-09-25T04:38:36.543Z,97930.59
2022-09-25T04:41:03.015Z,97929.50
2022-09-25T04:43:29.534Z,97920.31
2022-09-25T04:45:56.008Z,97925.59
2022-09-25T04:48:22.466Z,97924.88
2022-09-25T04:50:49.350Z,97927.94
2022-09-25T04:53:16.392Z,97933.56
2022-09-25T04:55:42.761Z,97937.81
2022-09-25T04:58:09.079Z,97937.72
2022-09-25T05:00:38.214Z,97933.06
2022-09-25T05:03:04.915Z,97943.38
2022-09-25T05:05:31.524Z,97938.19
2022-09-25T05:07:58.779Z,97934.88
2022-09-25T05:10:27.697Z,97939.78
2022-09-25T05:12:58.212Z,97938.19
2022-09-25T05:15:24.685Z,97947.22
2022-09-25T05:17:53.478Z,97939.34
2022-09-25T05:20:19.902Z,97938.19
2022-09-25T05:22:46.592Z,97939.63
2022-09-25T05:25:13.038Z,97942.84
2022-09-25T05:27:39.398Z,97944.44
2022-09-25T05:30:06.240Z,97952.09
2022-09-25T05:32:32.704Z,97942.56
2022-09-25T05:34:59.091Z,97940.22
2022-09-25T05:37:25.423Z,97942.63
2022-09-25T05:39:52.338Z,97938.75
2022-09-25T05:42:19.529Z,97935.19
2022-09-25T05:44:46.237Z,97938.31
2022-09-25T05:47:12.660Z,97940.72
2022-09-25T05:49:39.001Z,97943.94
2022-09-25T05:52:05.344Z,97950.03
2022-09-25T05:54:31.716Z,97944.03
2022-09-25T05:56:58.185Z,97944.47
2022-09-25T05:59:24.562Z,97941.63
2022-09-25T06:01:51.183Z,97935.78
2022-09-25T06:04:17.574Z,97921.41
2022-09-25T06:06:44.232Z,97928.72
2022-09-25T06:09:10.652Z,97933.66
2022-09-25T06:11:37.015Z,97933.59
2022-09-25T06:14:03.913Z,97936.88
2022-09-25T06:16:31.162Z,97934.84
2022-09-25T06:18:57.675Z,97931.63
2022-09-25T06:21:24.344Z,97933.66
2022-09-25T06:23:50.684Z,97935.00
2022-09-25T06:26:17.068Z,97929.72
2022-09-25T06:28:43.429Z,97931.63
2022-09-25T06:31:10.152Z,97935.06
2022-09-25T06:33:36.606Z,97935.72
2022-09-25T06:36:04.617Z,97928.56
2022-09-25T06:38:33.287Z,97925.50
2022-09-25T06:41:00.584Z,97930.69
2022-09-25T06:43:27.803Z,97935.84
2022-09-25T06:45:54.307Z,97927.22
2022-09-25T06:48:22.084Z,97930.91
2022-09-25T06:50:49.043Z,97937.47
2022-09-25T06:53:15.761Z,97933.22
2022-09-25T06:55:42.197Z,97925.41
2022-09-25T06:58:09.945Z,97934.19
2022-09-25T07:00:36.297Z,97937.53
2022-09-25T07:03:21.428Z,97930.16
2022-09-25T07:05:48.446Z,97936.28
2022-09-25T07:08:16.205Z,97942.63
2022-09-25T07:10:49.294Z,97936.84
2022-09-25T07:13:16.669Z,97944.81
2022-09-25T07:15:43.246Z,97936.06
2022-09-25T07:18:09.660Z,97936.13
2022-09-25T07:20:36.859Z,97927.09
2022-09-25T07:23:04.473Z,97924.84
2022-09-25T07:25:33.790Z,97930.13
2022-09-25T07:28:00.399Z,97927.13
2022-09-25T07:30:29.894Z,97933.19
2022-09-25T07:33:00.108Z,97937.59
2022-09-25T07:35:27.315Z,97942.41
2022-09-25T07:37:57.489Z,97941.59
2022-09-25T07:40:24.513Z,97951.63
2022-09-25T07:42:50.978Z,97947.69
2022-09-25T07:45:17.410Z,97947.53
2022-09-25T07:47:43.795Z,97949.25
2022-09-25T07:50:15.284Z,97946.06
2022-09-25T07:52:41.995Z,97950.47
2022-09-25T07:55:09.117Z,97955.75
2022-09-25T07:57:35.541Z,97951.31
2022-09-25T08:00:02.044Z,97952.44
2022-09-25T08:02:28.604Z,97958.34
2022-09-25T08:04:55.059Z,97962.06
2022-09-25T08:07:21.429Z,97964.03
2022-09-25T08:09:47.983Z,97955.84
2022-09-25T08:12:14.349Z,97956.19
2022-09-25T08:14:42.059Z,97962.31
2022-09-25T08:17:08.477Z,97958.31
2022-09-25T08:19:35.010Z,97958.75
2022-09-25T08:22:01.490Z,97965.72
2022-09-25T08:24:27.860Z,97955.94
2022-09-25T08:26:54.419Z,97964.41
2022-09-25T08:29:20.756Z,97959.50
2022-09-25T08:31:47.833Z,97968.28
2022-09-25T08:34:39.397Z,97972.69
2022-09-25T08:37:01.709Z,97970.56
2022-09-25T08:39:28.117Z,97976.84
2022-09-25T08:41:55.216Z,97969.88
2022-09-25T08:44:26.494Z,97973.69
2022-09-25T08:47:19.069Z,97977.44
2022-09-25T08:49:47.832Z,97968.88
2022-09-25T08:52:16.287Z,97979.06
2022-09-25T08:54:45.089Z,97971.34
2022-09-25T08:57:24.248Z,97975.88
2022-09-25T08:59:52.690Z,97962.47
2022-09-25T09:02:19.829Z,97965.13
2022-09-25T09:04:51.348Z,97971.66
2022-09-25T09:07:32.769Z,97967.47
2022-09-25T09:10:02.087Z,97974.50
2022-09-25T09:12:40.237Z,97975.81
2022-09-25T09:15:22.950Z,97972.44
2022-09-25T09:17:49.321Z,97968.69
2022-09-25T09:20:19.381Z,97970.34
2022-09-25T09:22:50.949Z,97973.69
2022-09-25T09:25:25.497Z,97965.31
2022-09-25T09:28:02.164Z,97969.31
2022-09-25T09:30:31.377Z,97962.34
2022-09-25T09:33:13.050Z,97967.00
2022-09-25T09:35:42.415Z,97969.66
2022-09-25T09:38:15.329Z,97970.22
2022-09-25T09:40:41.677Z,97969.41
2022-09-25T09:43:31.241Z,97967.44
2022-09-25T09:46:16.560Z,97971.41
2022-09-25T09:48:50.819Z,97974.25
2022-09-25T09:51:24.333Z,97968.81
2022-09-25T09:53:50.594Z,97974.16
2022-09-25T09:56:21.300Z,97969.44
2022-09-25T09:58:54.444Z,97970.56
2022-09-25T10:01:40.369Z,97968.03
2022-09-25T10:04:11.378Z,97959.16
2022-09-25T10:06:38.742Z,97957.59
2022-09-25T10:09:06.770Z,97962.03
2022-09-25T10:11:33.418Z,97965.41
2022-09-25T10:14:02.091Z,97960.19
2022-09-25T10:16:28.469Z,97957.31
2022-09-25T10:18:57.249Z,97963.31
2022-09-25T10:21:42.248Z,97966.56
2022-09-25T10:24:08.832Z,97962.03
2022-09-25T10:26:36.758Z,97958.75
2022-09-25T10:29:23.300Z,97966.53
2022-09-25T10:31:56.591Z,97970.97
2022-09-25T10:34:24.102Z,97973.63
2022-09-25T10:36:51.633Z,97970.13
2022-09-25T10:39:46.677Z,97973.72
2022-09-25T10:42:33.054Z,97972.84
2022-09-25T10:44:59.404Z,97959.69
2022-09-25T10:47:48.538Z,97961.72
2022-09-25T10:50:16.593Z,97965.09
2022-09-25T10:52:59.020Z,97959.69
2022-09-25T10:55:28.348Z,97956.75
2022-09-25T10:57:58.970Z,97965.22
2022-09-25T11:00:26.678Z,97958.16
2022-09-25T11:02:54.603Z,97958.69
2022-09-25T11:05:22.078Z,97955.50
2022-09-25T11:07:52.259Z,97956.28
2022-09-25T11:10:19.715Z,97969.47
2022-09-25T11:12:46.546Z,97957.50
2022-09-25T11:15:16.169Z,97947.44
2022-09-25T11:17:43.017Z,97953.75
2022-09-25T11:20:16.360Z,97958.25
2022-09-25T11:22:44.122Z,97962.63
2022-09-25T11:25:15.200Z,97949.75
2022-09-25T11:27:53.415Z,97960.72
2022-09-25T11:30:20.173Z,97951.56
2022-09-25T11:32:52.463Z,97960.25
2022-09-25T11:35:25.112Z,97955.63
2022-09-25T11:38:02.476Z,97943.66
2022-09-25T11:40:53.528Z,97943.28
2022-09-25T11:43:21.982Z,97935.44
2022-09-25T11:45:49.370Z,97938.22
2022-09-25T11:48:24.818Z,97933.88
2022-09-25T11:51:07.332Z,97927.88
2022-09-25T11:53:33.632Z,97933.72
2022-09-25T11:56:06.584Z,97930.41
2022-09-25T11:58:46.645Z,97934.66
2022-09-25T12:01:25.894Z,97933.09
2022-09-25T12:04:04.454Z,97924.69
2022-09-25T12:06:49.527Z,97923.47
2022-09-25T12:09:15.781Z,97917.84
2022-09-25T12:12:05.821Z,97918.97
2022-09-25T12:14:39.274Z,97917.72
2022-09-25T12:17:14.771Z,97917.69
2022-09-25T12:19:45.663Z,97917.63
2022-09-25T12:22:29.932Z,97917.69
2022-09-25T12:24:59.834Z,97918.34
2022-09-25T12:27:35.478Z,97917.47
2022-09-25T12:30:21.304Z,97924.69
2022-09-25T12:32:53.446Z,97909.44
2022-09-25T12:35:38.687Z,97912.16
2022-09-25T12:38:10.938Z,97904.97
2022-09-25T12:40:39.169Z,97909.75
2022-09-25T12:43:25.130Z,97906.97
2022-09-25T12:45:52.891Z,97902.97
2022-09-25T12:48:25.697Z,97894.16
2022-09-25T12:50:51.981Z,97890.16
2022-09-25T12:53:22.605Z,97885.38
2022-09-25T12:56:07.753Z,97896.94
2022-09-25T12:58:37.042Z,97889.34
2022-09-25T13:01:06.266Z,97888.56
2022-09-25T13:03:39.164Z,97890.13
2022-09-25T13:06:14.547Z,97888.44
2022-09-25T13:08:43.201Z,97884.47
2022-09-25T13:11:14.720Z,97885.19
2022-09-25T13:13:44.657Z,97887.31
2022-09-25T13:16:11.107Z,97880.84
2022-09-25T13:18:38.557Z,97875.19
2022-09-25T13:21:23.745Z,97866.84
2022-09-25T13:23:50.577Z,97862.88
2022-09-25T13:26:18.487Z,97864.06
2022-09-25T13:29:01.597Z,97854.16
2022-09-25T13:31:32.036Z,97858.22
2022-09-25T13:34:01.373Z,97864.63
2022-09-25T13:36:30.914Z,97864.69
2022-09-25T13:39:21.040Z,97865.88
2022-09-25T13:42:02.531Z,97861.06
2022-09-25T13:44:42.077Z,97865.41
2022-09-25T13:47:23.730Z,97867.75
2022-09-25T13:49:53.669Z,97864.56
2022-09-25T13:52:29.635Z,97870.13
2022-09-25T13:55:08.393Z,97868.91
2022-09-25T13:57:54.889Z,97859.03
2022-09-25T14:00:21.305Z,97862.19
2022-09-25T14:02:48.032Z,97862.19
2022-09-25T14:05:18.542Z,97858.19
2022-09-25T14:07:45.595Z,97851.00
2022-09-25T14:10:12.684Z,97846.19
2022-09-25T14:12:42.575Z,97850.59
2022-09-25T14:15:13.282Z,97846.22
2022-09-25T14:17:39.629Z,97842.72
2022-09-25T14:20:07.299Z,97839.81
2022-09-25T14:22:44.782Z,97839.00
2022-09-25T14:25:27.822Z,97838.16
2022-09-25T14:27:54.451Z,97839.81
2022-09-25T14:30:20.926Z,97839.44
2022-09-25T14:32:55.741Z,97835.03
2022-09-25T14:35:38.531Z,97833.88
2022-09-25T14:38:07.897Z,97830.31
2022-09-25T14:40:40.150Z,97832.69
2022-09-25T14:43:10.538Z,97825.13
2022-09-25T14:45:39.708Z,97826.72
2022-09-25T14:48:07.453Z,97826.31
2022-09-25T14:50:35.705Z,97830.28
2022-09-25T14:53:03.052Z,97833.84
2022-09-25T14:55:32.484Z,97824.28
2022-09-25T14:58:00.119Z,97825.31
2022-09-25T15:00:27.317Z,97818.81
2022-09-25T15:02:54.374Z,97821.25
2022-09-25T15:05:26.790Z,97822.84
2022-09-25T15:07:53.475Z,97824.44
2022-09-25T15:10:28.904Z,97822.75
2022-09-25T15:13:02.225Z,97827.81
2022-09-25T15:15:28.536Z,97827.31
2022-09-25T15:17:57.878Z,97827.28
2022-09-25T15:20:24.872Z,97829.25
2022-09-25T15:23:01.792Z,97826.88
2022-09-25T15:25:35.367Z,97826.56
2022-09-25T15:28:01.738Z,97828.09
2022-09-25T15:30:28.066Z,97828.53
2022-09-25T15:32:59.854Z,97823.22
2022-09-25T15:35:27.988Z,97826.34
2022-09-25T15:38:01.853Z,97826.28
2022-09-25T15:40:28.635Z,97823.84
2022-09-25T15:42:55.101Z,97829.56
2022-09-25T15:45:33.684Z,97823.59
2022-09-25T15:48:00.732Z,97820.31
2022-09-25T15:50:27.591Z,97814.13
2022-09-25T15:52:55.296Z,97815.84
2022-09-25T15:55:21.697Z,97805.75
2022-09-25T15:57:48.868Z,97805.81
2022-09-25T16:00:38.708Z,97801.91
2022-09-25T16:03:25.395Z,97799.13
2022-09-25T16:05:52.498Z,97797.13
2022-09-25T16:08:24.965Z,97793.97
2022-09-25T16:11:03.548Z,97792.63
2022-09-25T16:13:29.881Z,97787.56
2022-09-25T16:15:56.485Z,97785.59
2022-09-25T16:18:41.230Z,97789.97
2022-09-25T16:21:13.534Z,97788.31
2022-09-25T16:23:42.291Z,97787.56
2022-09-25T16:26:22.140Z,97785.84
2022-09-25T16:28:52.317Z,97788.63
2022-09-25T16:31:20.436Z,97790.25
2022-09-25T16:33:49.242Z,97790.19
2022-09-25T16:36:17.992Z,97783.03
2022-09-25T16:39:05.095Z,97791.81
2022-09-25T16:41:31.527Z,97785.16
2022-09-25T16:44:17.369Z,97788.38
2022-09-25T16:46:44.601Z,97791.03
2022-09-25T16:49:12.324Z,97784.59
2022-09-25T16:51:43.679Z,97784.19
2022-09-25T16:54:11.122Z,97780.56
2022-09-25T16:56:38.563Z,97783.38
2022-09-25T16:59:06.026Z,97774.66
2022-09-25T17:01:32.381Z,97779.63
2022-09-25T17:03:59.964Z,97780.75
2022-09-25T17:06:26.643Z,97779.63
2022-09-25T17:08:52.993Z,97780.94
2022-09-25T17:11:19.603Z,97778.31
2022-09-25T17:13:46.163Z,97786.69
2022-09-25T17:16:13.475Z,97783.91
2022-09-25T17:18:40.999Z,97784.84
2022-09-25T17:21:10.176Z,97792.28
2022-09-25T17:23:36.514Z,97784.31
2022-09-25T17:26:04.138Z,97785.06
2022-09-25T17:28:32.851Z,97780.50
2022-09-25T17:31:00.312Z,97774.19
2022-09-25T17:33:27.393Z,97779.38
2022-09-25T17:35:59.016Z,97780.66
2022-09-25T17:38:26.931Z,97776.00
2022-09-25T17:40:53.529Z,97780.31
2022-09-25T17:43:20.029Z,97775.66
2022-09-25T17:45:54.085Z,97779.63
2022-09-25T17:48:24.277Z,97769.88
2022-09-25T17:50:51.188Z,97771.06
2022-09-25T17:53:18.360Z,97775.94
2022-09-25T17:55:44.767Z,97773.75
2022-09-25T17:58:11.160Z,97771.59
2022-09-25T18:00:37.504Z,97779.34
2022-09-25T18:03:03.947Z,97774.56
2022-09-25T18:05:31.677Z,97766.56
2022-09-25T18:07:59.075Z,97767.94
2022-09-25T18:10:28.869Z,97767.41
2022-09-25T18:12:56.022Z,97763.94
2022-09-25T18:15:22.354Z,97763.16
2022-09-25T18:17:48.725Z,97762.63
2022-09-25T18:20:33.720Z,97762.09
2022-09-25T18:23:00.175Z,97765.25
2022-09-25T18:25:26.729Z,97757.13
2022-09-25T18:27:53.482Z,97758.69
2022-09-25T18:30:23.014Z,97759.41
2022-09-25T18:32:49.834Z,97762.97
2022-09-25T18:35:16.236Z,97767.28
2022-09-25T18:37:42.690Z,97771.78
2022-09-25T18:40:09.598Z,97764.72
2022-09-25T18:42:35.995Z,97761.94
2022-09-25T18:45:03.666Z,97762.31
2022-09-25T18:47:29.998Z,97760.69
2022-09-25T18:49:56.340Z,97764.56
2022-09-25T18:52:22.805Z,97755.00
2022-09-25T18:54:49.162Z,97757.31
2022-09-25T18:57:15.723Z,97754.47
2022-09-25T18:59:42.039Z,97747.13
2022-09-25T19:02:19.512Z,97753.47
2022-09-25T19:04:46.178Z,97741.31
2022-09-25T19:07:12.515Z,97750.16
2022-09-25T19:09:38.827Z,97747.59
2022-09-25T19:12:05.985Z,97745.13
2022-09-25T19:14:32.361Z,97740.88
2022-09-25T19:16:58.723Z,97742.41
2022-09-25T19:19:25.039Z,97738.06
2022-09-25T19:21:51.442Z,97733.25
2022-09-25T19:24:18.375Z,97738.13
2022-09-25T19:26:44.870Z,97738.06
2022-09-25T19:29:11.324Z,97738.84
2022-09-25T19:31:37.788Z,97736.28
2022-09-25T19:34:05.017Z,97737.97
2022-09-25T19:36:31.676Z,97730.16
2022-09-25T19:38:58.107Z,97727.00
2022-09-25T19:41:27.514Z,97734.31
2022-09-25T19:43:54.422Z,97738.78
2022-09-25T19:46:20.792Z,97738.41
2022-09-25T19:48:47.548Z,97729.75
2022-09-25T19:51:14.160Z,97728.19
2022-09-25T19:53:40.773Z,97730.59
2022-09-25T19:56:07.218Z,97722.72
2022-09-25T19:58:36.242Z,97712.41
2022-09-25T20:01:03.111Z,97713.00
2022-09-25T20:03:29.792Z,97718.91
2022-09-25T20:05:56.422Z,97724.53
2022-09-25T20:08:22.817Z,97718.78
2022-09-25T20:10:49.134Z,97721.97
2022-09-25T20:13:15.482Z,97719.06
2022-09-25T20:15:42.785Z,97708.22
2022-09-25T20:18:09.398Z,97709.91
2022-09-25T20:20:35.793Z,97713.03
2022-09-25T20:23:02.143Z,97706.31
2022-09-25T20:25:28.512Z,97703.31
2022-09-25T20:27:54.951Z,97699.63
2022-09-25T20:30:21.517Z,97694.25
2022-09-25T20:32:47.873Z,97691.31
2022-09-25T20:35:14.194Z,97691.91
2022-09-25T20:37:40.525Z,97688.63
2022-09-25T20:40:07.052Z,97697.31
2022-09-25T20:42:33.939Z,97697.31
2022-09-25T20:45:00.271Z,97689.81
2022-09-25T20:47:30.145Z,97691.72
2022-09-25T20:49:57.301Z,97698.47
2022-09-25T20:52:23.941Z,97691.56
2022-09-25T20:54:50.536Z,97685.88
2022-09-25T20:57:16.849Z,97686.31
2022-09-25T20:59:43.175Z,97681.47
2022-09-25T21:02:09.641Z,97681.09
2022-09-25T21:04:36.096Z,97682.28
2022-09-25T21:07:03.629Z,97687.47
2022-09-25T21:09:30.024Z,97686.16
2022-09-25T21:11:56.343Z,97676.44
2022-09-25T21:14:24.765Z,97677.16
2022-09-25T21:16:51.226Z,97683.78
2022-09-25T21:19:18.167Z,97684.03
2022-09-25T21:21:44.594Z,97682.84
2022-09-25T21:24:12.380Z,97688.53
2022-09-25T21:26:38.719Z,97678.88
2022-09-25T21:29:05.744Z,97670.31
2022-09-25T21:31:34.590Z,97673.34
2022-09-25T21:34:00.941Z,97675.47
2022-09-25T21:36:27.510Z,97675.53
2022-09-25T21:38:53.830Z,97668.44
2022-09-25T21:41:23.715Z,97666.25
2022-09-25T21:44:11.489Z,97663.16
2022-09-25T21:46:37.873Z,97659.94
2022-09-25T21:49:04.699Z,97661.44
2022-09-25T21:51:32.011Z,97653.41
2022-09-25T21:53:58.404Z,97650.84
2022-09-25T21:56:25.364Z,97661.81
2022-09-25T21:58:52.056Z,97666.56
2022-09-25T22:01:19.143Z,97665.03
2022-09-25T22:03:51.006Z,97659.78
2022-09-25T22:06:18.378Z,97655.34
2022-09-25T22:08:45.066Z,97655.34
2022-09-25T22:11:11.406Z,97662.53
2022-09-25T22:13:38.328Z,97660.00
2022-09-25T22:16:08.485Z,97656.22
2022-09-25T22:18:40.312Z,97648.91
2022-09-25T22:21:06.620Z,97655.66
2022-09-25T22:23:32.977Z,97653.00
2022-09-25T22:26:02.525Z,97652.03
2022-09-25T22:28:28.919Z,97651.13
2022-09-25T22:30:55.325Z,97648.16
2022-09-25T22:33:21.742Z,97650.47
2022-09-25T22:35:48.135Z,97643.97
2022-09-25T22:38:14.461Z,97645.41
2022-09-25T22:40:40.836Z,97637.91
2022-09-25T22:43:07.245Z,97635.19
2022-09-25T22:45:33.567Z,97643.53
2022-09-25T22:48:00.076Z,97643.75
2022-09-25T22:50:26.905Z,97643.88
2022-09-25T22:52:58.178Z,97647.50
2022-09-25T22:55:24.903Z,97641.38
2022-09-25T22:57:51.263Z,97634.94
2022-09-25T23:00:17.567Z,97633.28
2022-09-25T23:02:44.034Z,97630.22
2022-09-25T23:05:10.391Z,97626.19
2022-09-25T23:07:36.741Z,97629.75
2022-09-25T23:10:03.128Z,97623.13
2022-09-25T23:12:30.856Z,97628.22
2022-09-25T23:14:57.276Z,97619.34
2022-09-25T23:17:23.697Z,97625.84
2022-09-25T23:19:50.015Z,97622.72
2022-09-25T23:22:16.330Z,97622.66
2022-09-25T23:24:42.664Z,97614.78
2022-09-25T23:27:08.975Z,97615.06
2022-09-25T23:29:35.292Z,97616.38
2022-09-25T23:32:02.654Z,97601.84
2022-09-25T23:34:28.995Z,97611.94
2022-09-25T23:36:55.461Z,97590.22
2022-09-25T23:39:21.840Z,97588.63
2022-09-25T23:41:48.249Z,97587.31
2022-09-25T23:44:14.571Z,97587.75
2022-09-25T23:46:41.216Z,97573.56
2022-09-25T23:49:07.666Z,97572.31
2022-09-25T23:51:33.997Z,97575.25
2022-09-25T23:54:00.576Z,97564.13
2022-09-25T23:56:33.871Z,97564.63
2022-09-25T23:59:01.179Z,97556.44
